Time;durP1;ratioP1;P1;durP2;ratioP2;P2;SDS_P1;SDS_P2;PMS_P1;PMS_P2;Temp;Humidity;BMP_temperature;BMP_pressure;BME280_temperature;BME280_humidity;BME280_pressure;Samples;Min_cycle;Max_cycle;Signal;HPM_P1;HPM_P2
2022/06/21 00:02:13;;;;;;;8.20;3.00;;;12.70;99.90;;;;;;5012890;28;20644;-50
2022/06/21 00:04:40;;;;;;;8.68;3.22;;;12.70;99.90;;;;;;5026292;28;20033;-50
2022/06/21 00:07:10;;;;;;;5.90;3.00;;;12.60;99.90;;;;;;5011275;28;20041;-53
2022/06/21 00:09:36;;;;;;;5.72;2.67;;;12.60;99.90;;;;;;5030977;28;20090;-50
2022/06/21 00:12:02;;;;;;;6.57;3.35;;;12.60;99.90;;;;;;5039048;28;20041;-54
2022/06/21 00:14:27;;;;;;;10.77;3.72;;;12.50;99.90;;;;;;5034969;28;21198;-53
2022/06/21 00:16:53;;;;;;;6.35;4.13;;;12.40;99.90;;;;;;4993511;28;20499;-53
2022/06/21 00:19:22;;;;;;;10.88;4.00;;;12.40;99.90;;;;;;5011993;28;20033;-50
2022/06/21 00:21:48;;;;;;;7.22;4.07;;;12.40;99.90;;;;;;5023485;28;20366;-53
2022/06/21 00:24:16;;;;;;;5.18;3.17;;;12.30;99.90;;;;;;5029222;28;20041;-52
2022/06/21 00:26:44;;;;;;;9.55;4.22;;;12.30;99.90;;;;;;5029348;28;20041;-50
2022/06/21 00:29:10;;;;;;;7.97;3.55;;;12.30;99.90;;;;;;5036610;28;20219;-52
2022/06/21 00:31:38;;;;;;;5.68;2.47;;;12.30;99.90;;;;;;5043252;28;20041;-52
2022/06/21 00:34:19;;;;;;;7.55;3.40;;;12.20;99.90;;;;;;5037586;28;20049;-53
2022/06/21 00:36:46;;;;;;;5.68;3.40;;;12.20;99.90;;;;;;4996854;28;20041;-51
2022/06/21 00:39:15;;;;;;;8.52;4.43;;;12.10;99.90;;;;;;5026365;28;20045;-53
2022/06/21 00:41:52;;;;;;;5.93;3.38;;;12.10;99.90;;;;;;5027289;28;20514;-52
2022/06/21 00:44:43;;;;;;;5.57;3.70;;;12.10;99.90;;;;;;5020494;28;20034;-52
2022/06/21 00:47:46;;;;;;;7.40;4.57;;;12.10;99.90;;;;;;5008723;28;20102;-54
2022/06/21 00:50:35;;;;;;;7.28;3.97;;;12.10;99.90;;;;;;4993283;28;20625;-53
2022/06/21 00:53:13;;;;;;;6.65;3.60;;;12.00;99.90;;;;;;5015773;28;20621;-53
2022/06/21 00:56:02;;;;;;;7.07;3.25;;;11.90;99.90;;;;;;5024887;28;20262;-53
2022/06/21 00:58:30;;;;;;;4.97;3.53;;;11.80;99.90;;;;;;5002461;28;20056;-53
2022/06/21 01:01:12;;;;;;;8.60;4.35;;;11.80;99.90;;;;;;5018258;28;20116;-53
2022/06/21 01:03:42;;;;;;;7.50;3.50;;;11.80;99.90;;;;;;5008486;28;20510;-53
2022/06/21 01:06:14;;;;;;;8.45;4.15;;;11.80;99.90;;;;;;5005822;28;20056;-53
2022/06/21 01:08:43;;;;;;;7.97;3.28;;;11.80;99.90;;;;;;5028440;28;20033;-52
2022/06/21 01:11:13;;;;;;;6.35;3.78;;;11.70;99.90;;;;;;5026371;28;20045;-54
2022/06/21 01:13:43;;;;;;;7.65;3.63;;;11.70;99.90;;;;;;5019626;28;20087;-50
2022/06/21 01:16:09;;;;;;;8.10;4.10;;;11.70;99.90;;;;;;5015136;28;20036;-49
2022/06/21 01:18:36;;;;;;;5.07;3.63;;;11.60;99.90;;;;;;5002574;28;20454;-52
2022/06/21 01:21:03;;;;;;;6.28;4.40;;;11.60;99.90;;;;;;5023882;28;20107;-52
2022/06/21 01:23:51;;;;;;;7.28;3.28;;;11.50;99.90;;;;;;5031460;28;20499;-52
2022/06/21 01:26:38;;;;;;;6.57;4.97;;;11.60;99.90;;;;;;5003066;28;20040;-51
2022/06/21 01:29:09;;;;;;;10.15;4.80;;;11.60;99.90;;;;;;5010229;28;20507;-50
2022/06/21 01:31:35;;;;;;;8.13;3.83;;;11.50;99.90;;;;;;5015597;28;20037;-52
2022/06/21 01:34:01;;;;;;;9.52;4.40;;;11.50;99.90;;;;;;5000249;28;20118;-54
2022/06/21 01:36:33;;;;;;;9.30;4.97;;;11.40;99.90;;;;;;5015221;28;20056;-52
2022/06/21 01:39:11;;;;;;;6.60;4.28;;;11.40;99.90;;;;;;5025796;28;20041;-53
2022/06/21 01:41:57;;;;;;;12.60;4.00;;;11.40;99.90;;;;;;5008163;28;20044;-53
2022/06/21 01:44:27;;;;;;;9.65;5.00;;;11.30;99.90;;;;;;5025532;28;20071;-55
2022/06/21 01:46:54;;;;;;;5.65;3.75;;;11.30;99.90;;;;;;5030241;28;20053;-55
2022/06/21 01:49:25;;;;;;;8.98;4.45;;;11.30;99.90;;;;;;5014635;28;21443;-53
2022/06/21 01:52:14;;;;;;;8.18;3.92;;;11.30;99.90;;;;;;5022543;28;20033;-51
2022/06/21 01:54:45;;;;;;;7.15;4.68;;;11.30;99.90;;;;;;5033279;28;20037;-54
2022/06/21 01:57:13;;;;;;;7.13;4.47;;;11.30;99.90;;;;;;5016480;28;20048;-53
2022/06/21 01:59:42;;;;;;;8.45;3.40;;;11.30;99.90;;;;;;5008208;28;20037;-52
2022/06/21 02:02:13;;;;;;;5.03;3.25;;;11.20;99.90;;;;;;5026911;28;20053;-50
2022/06/21 02:04:49;;;;;;;5.20;4.07;;;11.40;99.90;;;;;;5024263;28;20069;-52
2022/06/21 02:07:20;;;;;;;7.05;3.83;;;11.50;99.90;;;;;;5025093;28;20037;-54
2022/06/21 02:09:51;;;;;;;6.50;4.20;;;11.50;99.90;;;;;;5026654;28;20037;-53
2022/06/21 02:12:17;;;;;;;6.78;3.85;;;11.40;99.90;;;;;;5033915;28;20381;-53
2022/06/21 02:14:49;;;;;;;4.60;3.65;;;11.40;99.90;;;;;;5023960;28;20048;-50
2022/06/21 02:17:24;;;;;;;7.63;4.00;;;11.40;99.90;;;;;;5021467;28;20044;-53
2022/06/21 02:20:01;;;;;;;5.25;3.20;;;11.30;99.90;;;;;;5036687;28;20251;-54
2022/06/21 02:22:29;;;;;;;3.35;2.83;;;11.30;99.90;;;;;;5026687;28;20041;-52
2022/06/21 02:24:55;;;;;;;5.40;3.38;;;11.30;99.90;;;;;;5040703;28;20402;-54
2022/06/21 02:27:24;;;;;;;8.80;3.95;;;11.30;99.90;;;;;;5016129;28;20033;-51
2022/06/21 02:29:55;;;;;;;4.93;3.47;;;11.30;99.90;;;;;;5028722;28;20354;-53
2022/06/21 02:32:37;;;;;;;6.13;4.10;;;11.30;99.90;;;;;;5012289;28;20651;-52
2022/06/21 02:35:21;;;;;;;4.95;3.40;;;11.30;99.90;;;;;;5028318;28;20037;-52
2022/06/21 02:37:49;;;;;;;5.47;3.67;;;11.30;99.90;;;;;;5032878;28;20133;-50
2022/06/21 02:40:28;;;;;;;5.65;4.50;;;11.30;99.90;;;;;;5027254;28;20037;-53
2022/06/21 02:42:58;;;;;;;6.32;3.90;;;11.20;99.90;;;;;;5011932;28;21355;-52
2022/06/21 02:45:33;;;;;;;5.55;4.72;;;11.20;99.90;;;;;;5007042;28;20044;-52
2022/06/21 02:48:12;;;;;;;4.82;4.38;;;11.10;99.90;;;;;;5028726;28;20033;-51
2022/06/21 02:50:55;;;;;;;7.10;4.45;;;11.10;99.90;;;;;;5030301;28;20037;-53
2022/06/21 02:53:34;;;;;;;6.45;4.22;;;11.10;99.90;;;;;;5007223;28;20133;-52
2022/06/21 02:56:15;;;;;;;5.15;4.07;;;11.00;99.90;;;;;;5026885;28;20075;-54
2022/06/21 02:58:51;;;;;;;6.95;4.32;;;11.00;99.90;;;;;;5026629;28;20435;-51
2022/06/21 03:01:39;;;;;;;5.75;4.00;;;10.90;99.90;;;;;;4993648;28;20056;-53
2022/06/21 03:04:07;;;;;;;5.40;2.75;;;10.90;99.90;;;;;;5022690;28;20091;-51
2022/06/21 03:06:34;;;;;;;7.75;4.40;;;10.80;99.90;;;;;;5024881;28;20462;-53
2022/06/21 03:09:06;;;;;;;7.22;4.40;;;10.90;99.90;;;;;;5008809;28;20372;-53
2022/06/21 03:11:42;;;;;;;7.07;4.13;;;10.90;99.90;;;;;;5023712;28;20251;-52
2022/06/21 03:14:34;;;;;;;5.22;4.20;;;10.90;99.90;;;;;;5026229;28;20037;-54
2022/06/21 03:17:03;;;;;;;4.60;3.50;;;10.80;99.90;;;;;;5019616;28;20060;-53
2022/06/21 03:19:40;;;;;;;4.13;3.20;;;10.80;99.90;;;;;;5026161;28;20796;-51
2022/06/21 03:22:29;;;;;;;5.72;3.25;;;10.70;99.90;;;;;;5023856;28;20072;-54
2022/06/21 03:24:59;;;;;;;8.90;4.53;;;10.70;99.90;;;;;;5024696;28;20041;-54
2022/06/21 03:27:37;;;;;;;8.50;4.35;;;10.70;99.90;;;;;;5006002;28;20037;-54
2022/06/21 03:30:04;;;;;;;9.07;4.30;;;10.60;99.90;;;;;;4999080;28;20475;-54
2022/06/21 03:32:35;;;;;;;6.53;4.20;;;10.60;99.90;;;;;;5031967;28;20373;-53
2022/06/21 03:35:04;;;;;;;8.30;4.93;;;10.60;99.90;;;;;;5022503;28;20099;-53
2022/06/21 03:37:29;;;;;;;4.35;3.20;;;10.60;99.90;;;;;;5009018;28;20045;-51
2022/06/21 03:42:45;;;;;;;5.78;4.45;;;10.60;99.90;;;;;;5024951;28;20602;-50
2022/06/21 03:45:17;;;;;;;7.53;5.10;;;10.60;99.90;;;;;;5005672;28;20107;-52
2022/06/21 03:47:58;;;;;;;10.80;4.97;;;10.60;99.90;;;;;;5029234;28;20025;-50
2022/06/21 03:50:31;;;;;;;5.63;4.10;;;10.70;99.90;;;;;;5021919;28;20051;-51
2022/06/21 03:53:38;;;;;;;6.07;3.58;;;10.70;99.90;;;;;;5021682;28;20033;-51
2022/06/21 03:56:18;;;;;;;5.05;4.05;;;10.70;99.90;;;;;;4976013;28;20073;-52
2022/06/21 03:59:04;;;;;;;7.30;4.65;;;10.80;99.90;;;;;;5018039;28;20200;-50
2022/06/21 04:01:38;;;;;;;7.10;4.65;;;10.90;99.90;;;;;;5018216;28;20625;-51
2022/06/21 04:04:26;;;;;;;6.38;4.25;;;10.90;99.90;;;;;;5023337;28;20051;-49
2022/06/21 04:07:01;;;;;;;6.38;5.00;;;11.00;99.90;;;;;;5008751;28;20049;-48
2022/06/21 04:09:42;;;;;;;6.32;3.95;;;11.10;99.90;;;;;;5019583;28;20037;-49
2022/06/21 04:12:22;;;;;;;8.15;4.18;;;11.20;99.90;;;;;;5021883;28;20041;-51
2022/06/21 04:15:17;;;;;;;3.85;3.10;;;11.20;99.90;;;;;;5009697;28;20529;-50
2022/06/21 04:18:16;;;;;;;5.80;4.03;;;11.20;99.90;;;;;;4997072;28;20045;-51
2022/06/21 04:20:51;;;;;;;8.50;4.68;;;11.30;99.90;;;;;;5009625;28;20136;-51
2022/06/21 04:23:21;;;;;;;5.32;4.20;;;11.40;99.90;;;;;;5016699;28;20073;-51
2022/06/21 04:25:58;;;;;;;6.32;4.75;;;11.50;99.90;;;;;;5002112;28;20051;-48
2022/06/21 04:28:36;;;;;;;6.90;3.70;;;11.50;99.90;;;;;;5024553;28;20178;-51
2022/06/21 04:31:16;;;;;;;4.57;4.15;;;11.50;99.90;;;;;;5022017;28;20063;-50
2022/06/21 04:33:51;;;;;;;4.95;2.85;;;11.60;99.90;;;;;;5006689;28;20045;-48
2022/06/21 04:36:35;;;;;;;6.85;4.20;;;11.50;99.90;;;;;;5021635;28;20134;-52
2022/06/21 04:39:19;;;;;;;4.15;3.67;;;11.60;99.90;;;;;;5018051;28;20041;-51
2022/06/21 04:41:59;;;;;;;4.85;4.10;;;11.60;99.90;;;;;;5027376;28;20033;-51
2022/06/21 04:44:33;;;;;;;4.25;3.33;;;11.70;99.90;;;;;;5003413;28;20064;-50
2022/06/21 04:47:19;;;;;;;6.07;4.25;;;11.70;99.90;;;;;;5003761;28;20383;-50
2022/06/21 04:50:11;;;;;;;4.82;3.85;;;11.70;99.90;;;;;;5012274;28;20043;-54
2022/06/21 04:52:44;;;;;;;6.97;4.15;;;11.80;99.90;;;;;;5022838;28;20025;-50
2022/06/21 04:55:17;;;;;;;;;;;11.80;99.90;;;;;;4995374;28;20103;-49
2022/06/21 04:57:45;;;;;;;9.07;4.75;;;11.90;99.90;;;;;;5008340;28;19924;-49
2022/06/21 05:00:16;;;;;;;5.18;3.13;;;11.90;99.90;;;;;;5004351;28;20493;-49
2022/06/21 05:03:03;;;;;;;6.90;3.92;;;12.00;99.90;;;;;;5028623;28;20045;-52
2022/06/21 05:05:33;;;;;;;5.05;3.47;;;12.10;99.90;;;;;;5026710;28;20041;-52
2022/06/21 05:08:06;;;;;;;6.00;3.92;;;12.20;99.90;;;;;;5026766;28;20029;-51
2022/06/21 05:10:36;;;;;;;5.43;3.45;;;12.30;99.90;;;;;;5005378;28;20041;-54
2022/06/21 05:13:06;;;;;;;5.43;3.05;;;12.40;99.90;;;;;;5021984;28;20045;-50
2022/06/21 05:15:35;;;;;;;5.05;3.75;;;12.50;99.90;;;;;;5003403;28;20065;-53
2022/06/21 05:18:10;;;;;;;6.85;3.80;;;12.60;99.90;;;;;;5008378;28;27242;-54
2022/06/21 05:20:40;;;;;;;7.88;4.15;;;12.70;99.90;;;;;;5002776;28;20091;-51
2022/06/21 05:23:07;;;;;;;11.70;4.00;;;12.80;99.90;;;;;;5005118;28;20043;-53
2022/06/21 05:25:42;;;;;;;3.38;2.67;;;12.80;99.90;;;;;;5009112;28;20029;-49
2022/06/21 05:28:08;;;;;;;5.85;3.55;;;12.90;99.90;;;;;;5002039;28;20407;-52
2022/06/21 05:31:00;;;;;;;5.25;3.63;;;13.00;99.90;;;;;;5005060;28;20048;-53
2022/06/21 05:33:33;;;;;;;9.50;4.30;;;13.10;99.90;;;;;;5006567;28;20276;-55
2022/06/21 05:36:06;;;;;;;5.93;3.85;;;13.20;99.90;;;;;;5006226;28;20582;-52
2022/06/21 05:38:33;;;;;;;6.72;4.32;;;13.30;99.90;;;;;;5003398;28;20470;-51
2022/06/21 05:41:29;;;;;;;7.00;3.92;;;13.30;99.90;;;;;;4991347;28;20045;-50
2022/06/21 05:44:10;;;;;;;5.97;3.55;;;13.40;99.90;;;;;;4986369;28;20085;-54
2022/06/21 05:49:27;;;;;;;8.27;4.90;;;13.60;99.90;;;;;;5047394;28;20104;-59
2022/06/21 05:51:57;;;;;;;8.32;5.00;;;13.70;99.90;;;;;;5040919;28;20045;-59
2022/06/21 05:54:37;;;;;;;9.57;4.65;;;13.80;99.90;;;;;;5046254;28;20052;-57
2022/06/21 05:57:06;;;;;;;10.00;5.03;;;13.90;99.90;;;;;;5051911;28;20467;-59
2022/06/21 05:59:32;;;;;;;7.70;5.00;;;14.00;99.90;;;;;;5053526;28;20369;-59
2022/06/21 06:02:15;;;;;;;9.13;4.68;;;14.10;99.90;;;;;;5049088;28;20375;-60
2022/06/21 06:04:58;;;;;;;8.73;5.30;;;14.20;99.90;;;;;;5035596;28;20041;-59
2022/06/21 06:07:29;;;;;;;12.75;6.78;;;14.30;99.90;;;;;;5051045;28;20280;-59
2022/06/21 06:09:58;;;;;;;8.60;4.63;;;14.30;99.90;;;;;;5043266;28;20076;-60
2022/06/21 06:12:32;;;;;;;8.48;5.85;;;14.40;99.90;;;;;;5033073;28;20033;-59
2022/06/21 06:15:06;;;;;;;7.90;4.68;;;14.50;99.90;;;;;;5031865;28;20037;-59
2022/06/21 06:17:59;;;;;;;15.90;5.50;;;14.60;99.90;;;;;;5048112;28;20044;-59
2022/06/21 06:20:36;;;;;;;5.80;3.55;;;14.70;99.90;;;;;;5033334;28;20053;-59
2022/06/21 06:23:17;;;;;;;8.23;3.80;;;14.80;99.90;;;;;;5039315;28;20116;-59
2022/06/21 06:25:48;;;;;;;10.63;4.75;;;14.90;99.90;;;;;;5015334;28;20061;-59
2022/06/21 06:28:35;;;;;;;7.82;4.18;;;14.90;99.90;;;;;;5042742;28;20078;-59
2022/06/21 06:31:28;;;;;;;9.00;4.13;;;14.90;99.90;;;;;;5053156;28;20392;-60
2022/06/21 06:34:02;;;;;;;8.90;3.55;;;14.80;99.90;;;;;;5052814;28;20048;-59
2022/06/21 06:37:01;;;;;;;8.95;3.92;;;14.90;99.90;;;;;;5052623;28;20076;-60
2022/06/21 06:39:30;;;;;;;7.72;3.97;;;14.90;99.90;;;;;;5009450;28;20049;-60
2022/06/21 06:42:40;;;;;;;10.25;4.32;;;14.90;99.90;;;;;;5042785;28;20373;-60
2022/06/21 06:45:20;;;;;;;7.45;3.83;;;15.00;99.90;;;;;;4999446;28;20041;-59
2022/06/21 06:47:53;;;;;;;8.98;4.00;;;15.20;99.90;;;;;;5042768;28;20119;-60
2022/06/21 06:50:27;;;;;;;8.90;4.03;;;15.30;99.90;;;;;;5047172;28;20377;-58
2022/06/21 06:53:07;;;;;;;7.68;3.10;;;15.40;99.90;;;;;;5033688;28;20049;-58
2022/06/21 06:55:45;;;;;;;5.97;3.30;;;15.40;99.90;;;;;;5038023;28;20075;-57
2022/06/21 06:58:31;;;;;;;9.57;3.50;;;15.50;99.90;;;;;;5046641;28;20116;-58
2022/06/21 07:01:05;;;;;;;7.47;3.25;;;15.50;99.90;;;;;;5034351;28;20124;-60
2022/06/21 07:03:37;;;;;;;7.90;3.38;;;15.50;99.90;;;;;;5047204;28;20045;-60
2022/06/21 07:06:31;;;;;;;11.60;3.97;;;15.40;99.90;;;;;;5039958;28;20045;-61
2022/06/21 07:09:04;;;;;;;8.00;3.10;;;15.40;99.90;;;;;;5041459;28;20069;-61
2022/06/21 07:11:39;;;;;;;12.68;3.38;;;15.40;99.90;;;;;;5049823;28;20076;-61
2022/06/21 07:14:15;;;;;;;6.82;3.85;;;15.40;99.90;;;;;;5045021;28;20292;-60
2022/06/21 07:16:42;;;;;;;6.43;2.65;;;15.60;99.90;;;;;;5033156;28;20049;-60
2022/06/21 07:19:10;;;;;;;6.55;3.25;;;15.90;99.90;;;;;;5040106;28;20045;-60
2022/06/21 07:21:38;;;;;;;8.70;3.53;;;16.20;99.90;;;;;;5049117;28;20404;-60
2022/06/21 07:24:13;;;;;;;6.38;3.00;;;16.40;99.90;;;;;;5033674;28;20065;-59
2022/06/21 07:26:47;;;;;;;7.38;2.75;;;16.40;99.90;;;;;;5030466;28;20045;-60
2022/06/21 07:29:19;;;;;;;9.02;2.90;;;16.40;99.90;;;;;;5042907;28;20399;-59
2022/06/21 07:31:57;;;;;;;6.18;3.03;;;16.40;99.90;;;;;;5039618;28;20488;-60
2022/06/21 07:34:29;;;;;;;10.60;3.53;;;16.30;99.90;;;;;;5046927;28;20463;-59
2022/06/21 07:37:12;;;;;;;7.65;2.88;;;16.50;99.90;;;;;;5030396;28;20550;-60
2022/06/21 07:40:00;;;;;;;8.55;3.10;;;16.70;99.90;;;;;;5042981;28;20082;-60
2022/06/21 07:42:32;;;;;;;5.35;2.47;;;16.80;99.90;;;;;;5029661;28;20518;-58
2022/06/21 07:45:15;;;;;;;10.98;3.20;;;16.70;99.90;;;;;;5044265;28;20045;-60
2022/06/21 07:47:55;;;;;;;6.80;3.35;;;16.50;99.90;;;;;;5051270;28;20041;-60
2022/06/21 07:50:24;;;;;;;9.15;2.97;;;16.50;99.90;;;;;;5043332;28;20056;-60
2022/06/21 07:52:59;;;;;;;8.30;3.28;;;16.40;99.90;;;;;;5036407;28;20045;-60
2022/06/21 07:55:31;;;;;;;7.07;2.80;;;16.40;99.90;;;;;;5046390;28;20442;-60
2022/06/21 07:58:04;;;;;;;9.05;2.65;;;16.50;99.90;;;;;;5030977;28;20546;-60
2022/06/21 08:06:41;;;;;;;9.70;3.00;;;16.60;99.90;;;;;;5043533;28;20030;-60
2022/06/21 08:09:16;;;;;;;6.47;2.08;;;16.70;99.90;;;;;;5046215;28;20041;-60
2022/06/21 08:11:44;;;;;;;8.07;1.95;;;16.70;99.90;;;;;;5037048;28;20034;-60
2022/06/21 08:14:12;;;;;;;5.15;2.00;;;16.90;99.90;;;;;;5036626;28;20077;-60
2022/06/21 08:17:02;;;;;;;4.82;2.10;;;17.10;99.90;;;;;;5040510;28;20044;-59
2022/06/21 08:19:45;;;;;;;7.95;2.05;;;17.10;99.90;;;;;;5030715;28;20130;-59
2022/06/21 08:22:11;;;;;;;5.05;1.90;;;17.30;99.90;;;;;;5045203;28;20041;-60
2022/06/21 08:25:02;;;;;;;3.70;1.88;;;17.50;99.90;;;;;;5039495;28;20076;-60
2022/06/21 08:27:50;;;;;;;5.93;2.45;;;17.70;99.90;;;;;;5047083;28;20399;-60
2022/06/21 08:30:26;;;;;;;4.65;2.20;;;17.90;99.90;;;;;;5034976;28;20507;-60
2022/06/21 08:33:05;;;;;;;6.43;2.22;;;18.00;99.90;;;;;;5049642;28;20055;-58
2022/06/21 08:35:59;;;;;;;5.88;2.08;;;18.20;99.90;;;;;;5041577;28;20483;-59
2022/06/21 08:38:31;;;;;;;;;;;18.40;99.90;;;;;;5037867;28;20123;-59
2022/06/21 08:41:09;;;;;;;7.60;2.50;;;18.50;99.90;;;;;;5045554;28;19928;-60
2022/06/21 08:43:35;;;;;;;4.65;2.05;;;18.80;99.90;;;;;;5041073;28;20052;-59
2022/06/21 08:46:29;;;;;;;6.53;2.50;;;18.50;99.50;;;;;;5046030;28;20085;-59
2022/06/21 08:49:03;;;;;;;4.53;1.83;;;18.10;99.90;;;;;;5039558;28;20041;-59
2022/06/21 08:51:41;;;;;;;6.35;2.75;;;18.10;99.90;;;;;;5044982;28;20103;-60
2022/06/21 08:54:30;;;;;;;7.47;2.08;;;18.20;99.90;;;;;;5047949;28;20040;-58
2022/06/21 08:57:12;;;;;;;6.15;2.33;;;18.30;99.90;;;;;;5039498;28;20042;-60
2022/06/21 08:59:41;;;;;;;5.10;2.33;;;18.40;99.90;;;;;;5041364;28;20041;-60
2022/06/21 09:02:32;;;;;;;5.25;2.17;;;18.40;99.90;;;;;;5048255;28;20044;-59
2022/06/21 09:05:24;;;;;;;5.38;2.50;;;18.40;99.90;;;;;;5030227;28;20140;-60
2022/06/21 09:08:12;;;;;;;4.80;1.75;;;18.40;99.90;;;;;;5040794;28;20504;-60
2022/06/21 09:10:56;;;;;;;5.80;1.92;;;18.70;99.90;;;;;;5048266;28;20373;-59
2022/06/21 09:13:58;;;;;;;5.05;1.85;;;19.00;99.90;;;;;;5045998;28;20053;-58
2022/06/21 09:17:08;;;;;;;9.00;2.10;;;19.40;99.90;;;;;;5040527;28;20106;-60
2022/06/21 09:20:12;;;;;;;4.90;1.98;;;18.90;98.00;;;;;;5043194;28;20048;-60
2022/06/21 09:22:49;;;;;;;5.10;1.85;;;18.70;99.80;;;;;;5025254;28;20504;-57
2022/06/21 09:25:46;;;;;;;7.07;2.20;;;18.70;99.90;;;;;;5037986;28;20056;-60
2022/06/21 09:28:27;;;;;;;9.35;2.83;;;18.60;99.10;;;;;;5040066;28;20053;-60
2022/06/21 09:30:59;;;;;;;6.20;2.30;;;18.50;99.60;;;;;;5043434;28;20045;-60
2022/06/21 09:33:42;;;;;;;4.10;2.50;;;18.50;99.90;;;;;;5036641;28;20038;-59
2022/06/21 09:36:27;;;;;;;4.30;2.05;;;18.50;99.90;;;;;;5042043;28;20132;-58
2022/06/21 09:38:59;;;;;;;7.07;2.95;;;18.50;99.70;;;;;;5037971;28;20037;-60
2022/06/21 09:41:44;;;;;;;4.50;2.20;;;18.80;98.90;;;;;;5032916;28;20045;-60
2022/06/21 09:44:31;;;;;;;4.60;2.15;;;19.00;99.90;;;;;;5042337;28;20045;-60
2022/06/21 09:47:38;;;;;;;6.78;2.10;;;19.50;99.60;;;;;;5047990;28;20040;-58
2022/06/21 09:50:19;;;;;;;3.60;2.13;;;19.90;99.00;;;;;;5046842;28;20512;-60
2022/06/21 09:52:56;;;;;;;5.60;2.58;;;20.30;98.80;;;;;;5041969;28;20041;-61
2022/06/21 09:55:40;;;;;;;4.35;2.25;;;20.50;98.20;;;;;;5039795;28;20381;-60
2022/06/21 09:58:09;;;;;;;6.10;2.67;;;20.40;97.80;;;;;;5043153;28;20116;-60
2022/06/21 10:00:53;;;;;;;5.68;2.22;;;20.10;97.20;;;;;;5045999;28;20466;-57
2022/06/21 10:03:40;;;;;;;8.18;3.63;;;20.10;98.10;;;;;;5048222;28;20075;-59
2022/06/21 10:06:18;;;;;;;6.03;2.50;;;19.90;97.40;;;;;;5037284;28;20041;-60
2022/06/21 10:09:18;;;;;;;4.75;1.98;;;19.90;97.30;;;;;;5042304;28;20541;-60
2022/06/21 10:12:02;;;;;;;5.85;2.63;;;19.80;97.80;;;;;;5041913;28;20080;-59
2022/06/21 10:14:56;;;;;;;4.18;1.65;;;20.20;97.70;;;;;;5051561;28;20045;-59
2022/06/21 10:17:25;;;;;;;4.32;2.35;;;20.40;95.90;;;;;;5046658;28;20049;-59
2022/06/21 10:20:20;;;;;;;5.85;2.63;;;20.60;97.50;;;;;;5031016;28;20053;-60
2022/06/21 10:23:22;;;;;;;6.38;2.38;;;20.70;96.60;;;;;;5041999;28;20116;-59
2022/06/21 10:26:05;;;;;;;6.65;2.40;;;20.80;96.60;;;;;;5048788;28;20434;-59
2022/06/21 10:28:36;;;;;;;6.45;2.75;;;20.60;97.10;;;;;;5049512;28;20124;-59
2022/06/21 10:31:22;;;;;;;4.00;2.72;;;20.40;97.10;;;;;;5038151;28;20072;-58
2022/06/21 10:34:23;;;;;;;5.95;2.20;;;20.40;97.30;;;;;;5040325;28;20481;-60
2022/06/21 10:37:03;;;;;;;5.50;2.55;;;20.50;96.70;;;;;;5024299;28;20073;-59
2022/06/21 10:39:48;;;;;;;5.00;2.95;;;20.40;97.40;;;;;;5044991;28;20079;-60
2022/06/21 10:42:47;;;;;;;4.03;2.30;;;20.60;97.30;;;;;;5038178;28;20056;-60
2022/06/21 10:45:25;;;;;;;7.75;2.50;;;20.40;97.10;;;;;;5035768;28;20548;-57
2022/06/21 10:48:08;;;;;;;4.28;2.05;;;20.50;97.40;;;;;;5046169;28;20033;-59
2022/06/21 10:50:43;;;;;;;5.97;1.73;;;20.70;97.00;;;;;;5042919;28;20041;-60
2022/06/21 10:53:47;;;;;;;5.03;2.00;;;20.90;96.80;;;;;;5037512;28;20128;-60
2022/06/21 10:59:23;;;;;;;6.82;2.40;;;21.40;95.30;;;;;;5039692;28;19917;-60
2022/06/21 11:01:52;;;;;;;3.38;2.03;;;21.40;95.50;;;;;;5034496;28;20140;-60
2022/06/21 11:05:13;;;;;;;5.82;2.13;;;21.60;95.60;;;;;;5045694;28;20530;-59
2022/06/21 11:08:03;;;;;;;3.83;1.83;;;21.80;95.50;;;;;;5024201;28;20053;-60
2022/06/21 11:10:36;;;;;;;3.90;1.75;;;22.10;95.20;;;;;;5034112;28;20045;-60
2022/06/21 11:13:05;;;;;;;4.47;2.08;;;22.10;93.90;;;;;;5042673;28;20041;-60
2022/06/21 11:15:37;;;;;;;4.45;2.05;;;22.00;93.80;;;;;;5045697;28;20505;-59
2022/06/21 11:18:19;;;;;;;4.95;2.65;;;22.20;94.30;;;;;;5040794;28;20229;-60
2022/06/21 11:21:06;;;;;;;6.53;3.13;;;22.40;93.60;;;;;;5042326;28;20037;-58
2022/06/21 11:23:38;;;;;;;6.72;2.33;;;22.30;92.40;;;;;;5045789;28;20079;-60
2022/06/21 11:26:38;;;;;;;4.43;1.88;;;22.40;92.90;;;;;;5043791;28;20060;-60
2022/06/21 11:29:33;;;;;;;4.40;1.67;;;22.60;92.20;;;;;;5042746;28;20051;-60
2022/06/21 11:32:07;;;;;;;4.82;2.28;;;22.70;92.10;;;;;;5047353;28;20041;-60
2022/06/21 11:34:44;;;;;;;4.22;2.25;;;22.30;91.50;;;;;;5050775;28;20044;-57
2022/06/21 11:37:39;;;;;;;6.85;2.30;;;22.50;91.80;;;;;;5050333;28;20049;-61
2022/06/21 11:40:27;;;;;;;5.53;2.60;;;22.70;92.10;;;;;;5050246;28;20048;-59
2022/06/21 11:42:58;;;;;;;5.32;2.28;;;22.90;91.10;;;;;;5050302;28;20313;-60
2022/06/21 11:45:44;;;;;;;3.80;1.75;;;23.10;90.70;;;;;;5051692;28;20037;-59
2022/06/21 11:48:40;;;;;;;5.07;1.85;;;23.20;90.80;;;;;;5060766;22;20057;-51
2022/06/21 11:51:09;;;;;;;5.75;2.28;;;23.20;90.70;;;;;;5021682;28;20050;-52
2022/06/21 11:53:59;;;;;;;4.32;2.30;;;23.10;90.50;;;;;;5018668;28;20042;-53
2022/06/21 11:56:55;;;;;;;6.63;2.47;;;22.80;85.90;;;;;;5000521;28;20037;-54
2022/06/21 11:59:32;;;;;;;4.25;2.03;;;22.90;90.40;;;;;;5018890;28;20049;-53
2022/06/21 12:02:12;;;;;;;6.57;2.22;;;22.80;90.80;;;;;;5019853;28;20095;-53
2022/06/21 12:05:09;;;;;;;4.68;2.00;;;22.30;88.10;;;;;;5017142;28;20099;-52
2022/06/21 12:07:52;;;;;;;4.47;2.30;;;22.50;89.20;;;;;;5025407;28;20037;-50
2022/06/21 12:10:35;;;;;;;4.47;2.30;;;22.30;86.70;;;;;;5021462;28;20090;-54
2022/06/21 12:13:07;;;;;;;4.03;2.35;;;22.40;90.10;;;;;;5014383;28;20293;-52
2022/06/21 12:15:51;;;;;;;4.68;2.13;;;22.70;90.30;;;;;;5015295;28;20045;-52
2022/06/21 12:18:23;;;;;;;7.57;2.20;;;22.90;88.60;;;;;;5015499;28;20243;-49
2022/06/21 12:21:01;;;;;;;4.65;2.03;;;23.10;89.60;;;;;;5019773;28;20049;-54
2022/06/21 12:23:44;;;;;;;3.85;2.55;;;23.30;88.70;;;;;;5025318;28;20080;-51
2022/06/21 12:26:31;;;;;;;4.53;1.97;;;23.20;87.40;;;;;;5012275;28;20037;-50
2022/06/21 12:28:59;;;;;;;5.82;2.05;;;23.50;90.20;;;;;;5017135;28;20239;-53
2022/06/21 12:31:41;;;;;;;5.07;2.00;;;23.60;86.60;;;;;;5001932;28;20428;-50
2022/06/21 12:34:31;;;;;;;4.07;1.80;;;23.60;88.00;;;;;;5016611;28;20041;-51
2022/06/21 12:37:17;;;;;;;5.38;1.80;;;23.70;88.80;;;;;;5009241;28;20049;-53
2022/06/21 12:40:02;;;;;;;4.68;1.90;;;24.00;86.00;;;;;;5015432;28;20037;-52
2022/06/21 12:42:47;;;;;;;6.30;2.67;;;24.20;86.50;;;;;;5015916;28;20034;-54
2022/06/21 12:45:34;;;;;;;9.05;3.05;;;24.30;85.90;;;;;;5011971;28;20508;-54
2022/06/21 12:48:04;;;;;;;6.50;2.28;;;24.50;87.20;;;;;;4997000;28;20045;-55
2022/06/21 12:51:06;;;;;;;5.47;1.80;;;24.60;87.10;;;;;;5009705;28;20125;-52
2022/06/21 12:53:47;;;;;;;4.78;2.08;;;24.90;86.30;;;;;;5016651;28;20048;-54
2022/06/21 12:56:27;;;;;;;4.35;1.90;;;25.10;84.70;;;;;;5019881;28;20442;-49
2022/06/21 12:59:15;;;;;;;5.03;2.03;;;24.90;83.10;;;;;;5038257;28;20129;-51
2022/06/21 13:02:11;;;;;;;3.63;1.70;;;25.10;82.90;;;;;;5020891;28;20116;-51
2022/06/21 13:05:02;;;;;;;4.03;2.28;;;25.40;80.50;;;;;;5014118;28;20041;-50
2022/06/21 13:07:39;;;;;;;4.05;2.10;;;25.30;81.30;;;;;;5034059;28;20073;-56
2022/06/21 13:10:38;;;;;;;4.47;1.70;;;25.20;78.20;;;;;;5021326;28;20037;-53
2022/06/21 13:13:23;;;;;;;4.50;1.98;;;25.20;76.80;;;;;;5020372;28;20645;-53
2022/06/21 13:15:52;;;;;;;4.80;2.08;;;25.10;76.90;;;;;;5020073;28;20387;-51
2022/06/21 13:18:49;;;;;;;4.30;1.73;;;25.30;78.70;;;;;;5023415;28;20522;-59
2022/06/21 13:21:39;;;;;;;5.03;1.55;;;25.40;75.50;;;;;;5006688;28;20546;-56
2022/06/21 13:24:40;;;;;;;5.00;1.83;;;25.40;75.30;;;;;;5023732;28;20438;-58
2022/06/21 13:27:22;;;;;;;4.40;1.70;;;24.80;72.70;;;;;;4990897;28;20044;-54
2022/06/21 13:30:03;;;;;;;4.40;1.80;;;24.30;73.40;;;;;;5025364;28;20396;-54
2022/06/21 13:32:31;;;;;;;5.85;2.03;;;24.00;74.70;;;;;;5020140;28;20044;-56
2022/06/21 13:35:11;;;;;;;4.30;1.75;;;23.80;77.00;;;;;;5023922;28;20396;-53
2022/06/21 13:37:45;;;;;;;3.78;1.73;;;23.60;77.20;;;;;;5022164;28;20054;-54
2022/06/21 13:40:20;;;;;;;3.67;2.00;;;23.40;75.50;;;;;;5023504;28;20044;-49
2022/06/21 13:43:08;;;;;;;5.07;1.85;;;23.30;75.10;;;;;;5022143;28;20514;-55
2022/06/21 13:45:51;;;;;;;3.45;1.80;;;23.20;77.10;;;;;;5019287;28;20391;-54
2022/06/21 13:48:23;;;;;;;3.22;1.58;;;23.30;77.50;;;;;;5019545;28;20041;-50
2022/06/21 13:51:04;;;;;;;6.38;1.67;;;23.20;78.40;;;;;;5018128;28;20127;-54
2022/06/21 13:53:54;;;;;;;3.60;2.05;;;23.20;80.10;;;;;;5023098;28;20068;-54
2022/06/21 13:56:40;;;;;;;4.85;1.83;;;22.80;79.50;;;;;;5017161;28;20376;-53
2022/06/21 13:59:11;;;;;;;3.05;1.60;;;22.90;81.60;;;;;;5021534;28;20056;-54
2022/06/21 14:01:49;;;;;;;5.25;2.60;;;23.40;82.10;;;;;;5026162;28;20110;-53
2022/06/21 14:04:15;;;;;;;2.95;2.10;;;23.80;80.10;;;;;;5020799;28;20380;-50